Time;durP1;ratioP1;P1;durP2;ratioP2;P2;SDS_P1;SDS_P2;PMS_P1;PMS_P2;Temp;Humidity;BMP_temperature;BMP_pressure;BME280_temperature;BME280_humidity;BME280_pressure;Samples;Min_cycle;Max_cycle;Signal;HPM_P1;HPM_P2
2022/10/23 00:02:23;;;;;;;21.58;17.42;;;10.90;99.90;;;;;;4927192;29;20080;-93
2022/10/23 00:04:51;;;;;;;22.50;18.45;;;10.90;99.90;;;;;;4945034;29;20044;-91
2022/10/23 00:07:17;;;;;;;21.92;17.08;;;10.90;99.90;;;;;;4918041;29;20415;-91
2022/10/23 00:09:43;;;;;;;21.92;18.63;;;10.90;99.90;;;;;;4939590;29;20118;-92
2022/10/23 00:12:09;;;;;;;22.98;18.20;;;10.90;99.90;;;;;;4910241;29;20047;-91
2022/10/23 00:14:35;;;;;;;25.98;19.15;;;10.90;99.90;;;;;;4931181;29;20695;-92
2022/10/23 00:17:00;;;;;;;20.88;17.60;;;10.90;99.90;;;;;;4926236;29;20111;-92
2022/10/23 00:19:26;;;;;;;23.98;18.65;;;10.90;99.90;;;;;;4910396;29;20127;-92
2022/10/23 00:21:51;;;;;;;22.15;19.75;;;10.90;99.90;;;;;;4925789;29;20121;-92
2022/10/23 00:24:17;;;;;;;25.30;18.88;;;11.00;99.90;;;;;;4927055;29;20039;-92
2022/10/23 00:26:43;;;;;;;24.92;20.55;;;11.00;99.90;;;;;;4930797;29;20134;-91
2022/10/23 00:29:09;;;;;;;24.35;19.92;;;10.90;99.90;;;;;;4917855;29;20381;-92
2022/10/23 00:31:36;;;;;;;24.13;20.10;;;11.00;99.90;;;;;;4925985;29;20121;-92
2022/10/23 00:34:02;;;;;;;23.40;20.05;;;11.00;99.90;;;;;;4929784;29;20047;-92
2022/10/23 00:36:28;;;;;;;22.85;19.13;;;11.00;99.90;;;;;;4930724;29;20066;-93
2022/10/23 00:38:54;;;;;;;23.40;19.52;;;11.00;99.90;;;;;;4917651;28;20036;-92
2022/10/23 00:41:23;;;;;;;31.48;23.77;;;11.00;99.90;;;;;;4931280;28;20047;-92
2022/10/23 00:44:28;;;;;;;26.63;20.60;;;11.00;99.90;;;;;;4933540;29;20066;-92
2022/10/23 00:46:54;;;;;;;24.30;18.73;;;11.00;99.90;;;;;;4910902;29;20052;-93
2022/10/23 00:49:21;;;;;;;27.73;20.55;;;11.00;99.90;;;;;;4908723;29;20047;-93
2022/10/23 00:51:52;;;;;;;23.00;19.33;;;11.00;99.90;;;;;;4928311;29;20550;-92
2022/10/23 00:54:21;;;;;;;24.60;20.90;;;10.90;99.90;;;;;;4931659;29;20080;-92
2022/10/23 00:56:48;;;;;;;25.95;20.08;;;10.90;99.90;;;;;;4916359;29;20122;-92
2022/10/23 00:59:14;;;;;;;23.02;20.42;;;11.00;99.90;;;;;;4907315;29;20122;-93
2022/10/23 01:01:40;;;;;;;26.67;22.10;;;10.90;99.90;;;;;;4909202;29;20592;-92
2022/10/23 01:04:06;;;;;;;27.13;21.15;;;10.90;99.90;;;;;;4928289;29;20059;-93
2022/10/23 01:07:11;;;;;;;24.88;20.38;;;11.00;99.90;;;;;;4917996;29;20514;-93
2022/10/23 01:09:54;;;;;;;26.17;21.60;;;11.00;99.90;;;;;;4916892;29;20051;-94
2022/10/23 01:12:27;;;;;;;27.35;21.42;;;11.00;99.90;;;;;;4912612;29;20143;-93
2022/10/23 01:14:57;;;;;;;26.85;21.75;;;11.10;99.90;;;;;;4924470;29;20067;-93
2022/10/23 01:17:50;;;;;;;28.10;22.55;;;11.10;99.90;;;;;;4926599;29;20118;-93
2022/10/23 01:20:45;;;;;;;23.90;21.35;;;11.20;99.90;;;;;;4909773;29;20047;-92
2022/10/23 01:23:31;;;;;;;26.17;22.83;;;11.20;99.90;;;;;;4912909;29;20587;-93
2022/10/23 01:26:10;;;;;;;25.88;21.02;;;11.20;99.90;;;;;;4943014;29;20457;-93
2022/10/23 01:28:46;;;;;;;23.27;19.85;;;11.20;99.90;;;;;;4932900;29;20097;-93
2022/10/23 01:31:17;;;;;;;24.98;21.65;;;11.20;99.90;;;;;;4930500;29;20147;-94
2022/10/23 01:33:57;;;;;;;29.00;22.30;;;11.30;99.90;;;;;;4917204;29;20410;-95
2022/10/23 01:36:28;;;;;;;25.65;21.23;;;11.30;99.90;;;;;;4914896;29;20047;-93
2022/10/23 01:39:03;;;;;;;25.05;21.55;;;11.20;99.90;;;;;;4936896;28;20047;-93
2022/10/23 01:41:38;;;;;;;28.50;22.92;;;11.20;99.90;;;;;;4932665;29;20039;-93
2022/10/23 01:44:15;;;;;;;26.42;20.95;;;11.30;99.90;;;;;;4935622;29;20043;-93
2022/10/23 01:46:43;;;;;;;26.55;21.90;;;11.20;99.90;;;;;;4920180;29;20050;-93
2022/10/23 01:49:11;;;;;;;24.50;20.92;;;11.20;99.90;;;;;;4920267;29;20135;-94
2022/10/23 01:51:39;;;;;;;30.90;24.25;;;11.20;99.90;;;;;;4925976;29;20035;-94
2022/10/23 01:54:08;;;;;;;24.95;20.90;;;11.20;99.90;;;;;;4935878;29;20426;-94
2022/10/23 01:56:38;;;;;;;24.90;21.15;;;11.20;99.90;;;;;;4920871;29;20043;-93
2022/10/23 01:59:22;;;;;;;26.50;20.80;;;11.20;99.90;;;;;;4939051;29;20054;-93
2022/10/23 02:01:51;;;;;;;24.33;20.80;;;11.20;99.90;;;;;;4955224;28;20048;-93
2022/10/23 02:04:22;;;;;;;24.33;19.63;;;11.10;99.90;;;;;;4938610;29;20082;-93
2022/10/23 02:06:48;;;;;;;;;;;11.10;99.90;;;;;;4917757;29;20045;-94
2022/10/23 02:09:14;;;;;;;23.55;20.20;;;11.00;99.90;;;;;;4936981;29;19974;-93
2022/10/23 02:11:52;;;;;;;24.42;20.80;;;11.10;99.90;;;;;;4937589;29;20039;-93
2022/10/23 02:14:56;;;;;;;28.63;22.52;;;11.10;99.90;;;;;;4921135;29;20098;-94
2022/10/23 02:17:35;;;;;;;24.95;20.80;;;11.00;99.90;;;;;;4925453;29;20054;-94
2022/10/23 02:20:12;;;;;;;23.73;20.20;;;11.00;99.90;;;;;;4956657;29;20040;-93
2022/10/23 02:22:45;;;;;;;25.20;21.30;;;11.00;99.90;;;;;;4939771;29;20039;-93
2022/10/23 02:25:28;;;;;;;24.15;20.63;;;11.00;99.90;;;;;;4925543;29;20046;-94
2022/10/23 02:27:59;;;;;;;28.38;21.45;;;10.90;99.90;;;;;;4927886;29;20496;-93
2022/10/23 02:30:27;;;;;;;23.42;19.65;;;10.90;99.90;;;;;;4930355;29;20035;-93
2022/10/23 02:32:55;;;;;;;23.33;19.42;;;10.90;99.90;;;;;;4946601;29;20118;-93
2022/10/23 02:35:22;;;;;;;27.70;22.48;;;10.90;99.90;;;;;;4940218;29;20050;-94
2022/10/23 02:37:53;;;;;;;23.23;20.75;;;10.80;99.90;;;;;;4938202;29;20043;-94
2022/10/23 02:40:19;;;;;;;24.08;21.52;;;10.80;99.90;;;;;;4942614;28;20042;-93
2022/10/23 02:42:58;;;;;;;35.00;22.67;;;10.80;99.90;;;;;;4962540;28;20027;-92
2022/10/23 02:45:47;;;;;;;24.45;20.45;;;10.80;99.90;;;;;;4941888;28;20039;-93
2022/10/23 02:48:21;;;;;;;33.22;21.95;;;10.70;99.90;;;;;;4945336;29;20034;-92
2022/10/23 02:50:58;;;;;;;43.67;24.65;;;10.70;99.90;;;;;;4946165;28;20031;-93
2022/10/23 02:53:32;;;;;;;23.10;19.80;;;10.70;99.90;;;;;;4945727;29;20039;-93
2022/10/23 02:56:11;;;;;;;36.60;26.13;;;10.60;99.90;;;;;;4924701;29;20047;-93
2022/10/23 02:58:55;;;;;;;25.48;20.83;;;10.60;99.90;;;;;;4940811;29;20061;-93
2022/10/23 03:01:27;;;;;;;28.88;22.88;;;10.60;99.90;;;;;;4925042;29;20050;-94
2022/10/23 03:03:56;;;;;;;30.55;25.10;;;10.70;99.90;;;;;;4928444;29;20039;-94
2022/10/23 03:06:22;;;;;;;29.52;24.90;;;10.60;99.90;;;;;;4932572;29;20134;-93
2022/10/23 03:08:52;;;;;;;34.53;28.65;;;10.70;99.90;;;;;;4922110;29;20035;-94
2022/10/23 03:11:18;;;;;;;37.15;28.83;;;10.70;99.90;;;;;;4953992;29;20043;-92
2022/10/23 03:13:44;;;;;;;31.73;28.10;;;10.70;99.90;;;;;;4922503;29;20098;-93
2022/10/23 03:16:10;;;;;;;34.38;28.08;;;10.70;99.90;;;;;;4939535;28;20078;-94
2022/10/23 03:18:35;;;;;;;32.28;27.95;;;10.70;99.90;;;;;;4939269;29;20035;-95
2022/10/23 03:21:01;;;;;;;32.28;28.15;;;10.70;99.90;;;;;;4923517;29;20440;-94
2022/10/23 03:23:27;;;;;;;31.73;27.23;;;10.70;99.90;;;;;;4922047;29;20039;-93
2022/10/23 03:25:53;;;;;;;30.67;27.33;;;10.70;99.90;;;;;;4922862;29;20401;-94
2022/10/23 03:28:19;;;;;;;29.55;25.92;;;10.80;99.90;;;;;;4922728;29;20126;-93
2022/10/23 03:30:44;;;;;;;31.70;27.17;;;10.70;99.90;;;;;;4921498;29;20470;-95
2022/10/23 03:33:10;;;;;;;31.77;26.40;;;10.70;99.90;;;;;;4933381;29;20078;-94
2022/10/23 03:35:36;;;;;;;30.60;27.35;;;10.70;99.90;;;;;;4907864;29;20093;-95
2022/10/23 03:38:02;;;;;;;33.30;26.85;;;10.70;99.90;;;;;;4930504;29;20047;-95
2022/10/23 03:40:27;;;;;;;32.30;26.88;;;10.70;99.90;;;;;;4911501;29;20108;-95
2022/10/23 03:42:53;;;;;;;32.40;27.58;;;10.70;99.90;;;;;;4910105;29;20525;-94
2022/10/23 03:45:19;;;;;;;30.90;26.55;;;10.70;99.90;;;;;;4915797;29;20043;-94
2022/10/23 03:47:44;;;;;;;41.88;32.03;;;10.70;99.90;;;;;;4911482;29;20518;-95
2022/10/23 03:50:12;;;;;;;29.77;26.42;;;10.70;99.90;;;;;;4929061;29;20048;-96
2022/10/23 03:52:38;;;;;;;28.65;25.08;;;10.70;99.90;;;;;;4913536;29;20043;-94
2022/10/23 03:55:04;;;;;;;32.03;27.33;;;10.70;99.90;;;;;;4919358;29;20489;-95
2022/10/23 03:57:30;;;;;;;34.22;28.42;;;10.70;99.90;;;;;;4915563;29;20044;-95
2022/10/23 03:59:55;;;;;;;33.30;29.70;;;10.70;99.90;;;;;;4906889;29;20035;-94
2022/10/23 04:02:21;;;;;;;36.28;30.20;;;10.80;99.90;;;;;;4915350;29;20117;-95
2022/10/23 04:04:47;;;;;;;33.00;26.63;;;10.80;99.90;;;;;;4931999;29;20031;-94
2022/10/23 04:07:13;;;;;;;31.05;26.48;;;10.80;99.90;;;;;;4930669;29;20048;-95
2022/10/23 04:09:38;;;;;;;32.15;27.80;;;10.80;99.90;;;;;;4920319;29;20082;-96
2022/10/23 04:12:05;;;;;;;29.05;25.85;;;10.80;99.90;;;;;;4910543;29;20100;-95
2022/10/23 04:14:30;;;;;;;34.67;29.45;;;10.80;99.90;;;;;;4912435;29;20496;-95
2022/10/23 04:16:56;;;;;;;41.35;31.63;;;10.80;99.90;;;;;;4919961;29;20075;-95
2022/10/23 04:19:21;;;;;;;38.63;30.95;;;10.80;99.90;;;;;;4924423;29;20134;-94
2022/10/23 04:21:47;;;;;;;37.13;31.17;;;10.80;99.90;;;;;;4905838;29;20243;-94
2022/10/23 04:24:13;;;;;;;37.97;29.30;;;10.80;99.90;;;;;;4921156;29;20039;-96
2022/10/23 04:26:39;;;;;;;36.33;29.13;;;10.80;99.90;;;;;;4917237;29;20039;-95
2022/10/23 04:29:04;;;;;;;32.30;27.35;;;10.90;99.90;;;;;;4917795;29;20051;-95
2022/10/23 04:31:30;;;;;;;32.65;28.80;;;10.80;99.90;;;;;;4915530;29;20056;-95
2022/10/23 04:33:56;;;;;;;35.13;28.92;;;10.80;99.90;;;;;;4922634;29;20058;-94
2022/10/23 04:36:21;;;;;;;33.67;28.63;;;10.80;99.90;;;;;;4919262;29;20047;-95
2022/10/23 04:38:47;;;;;;;35.85;27.67;;;10.80;99.90;;;;;;4912537;29;20031;-95
2022/10/23 04:41:13;;;;;;;32.80;27.88;;;10.80;99.90;;;;;;4908376;29;20065;-95
2022/10/23 04:43:38;;;;;;;32.03;27.88;;;10.80;99.90;;;;;;4916240;29;20130;-95
2022/10/23 04:46:04;;;;;;;33.95;28.42;;;10.80;99.90;;;;;;4932296;29;20043;-95
2022/10/23 04:48:31;;;;;;;37.17;28.55;;;10.80;99.90;;;;;;4933477;29;20134;-96
2022/10/23 04:50:59;;;;;;;31.67;28.23;;;10.80;99.90;;;;;;4921194;29;20071;-95
2022/10/23 04:53:26;;;;;;;32.28;27.58;;;10.80;99.90;;;;;;4918073;29;20067;-95
2022/10/23 04:55:54;;;;;;;39.88;29.95;;;10.70;99.90;;;;;;4920528;29;20051;-95
2022/10/23 04:58:21;;;;;;;34.65;26.45;;;10.70;99.90;;;;;;4914425;29;20051;-94
2022/10/23 05:00:48;;;;;;;46.08;31.05;;;10.70;99.90;;;;;;4931738;28;20054;-95
2022/10/23 05:03:15;;;;;;;30.00;26.42;;;10.70;99.90;;;;;;4918605;29;20401;-94
2022/10/23 05:05:41;;;;;;;37.28;28.67;;;10.60;99.90;;;;;;4906867;29;20055;-95
2022/10/23 05:08:07;;;;;;;35.08;27.23;;;10.60;99.90;;;;;;4912051;29;20174;-95
2022/10/23 05:10:33;;;;;;;37.22;27.85;;;10.60;99.90;;;;;;4927000;29;20047;-94
2022/10/23 05:12:59;;;;;;;41.42;30.55;;;10.60;99.90;;;;;;4907484;29;20051;-95
2022/10/23 05:15:24;;;;;;;36.47;28.77;;;10.50;99.90;;;;;;4917509;29;20035;-96
2022/10/23 05:18:03;;;;;;;39.47;30.83;;;10.60;99.90;;;;;;4908720;29;20043;-95
2022/10/23 05:20:34;;;;;;;36.33;29.35;;;10.60;99.90;;;;;;4916265;29;20047;-96
2022/10/23 05:23:01;;;;;;;38.97;29.92;;;10.60;99.90;;;;;;4928621;29;20871;-96
2022/10/23 05:25:28;;;;;;;32.15;27.95;;;10.60;99.90;;;;;;4931229;29;20106;-95
2022/10/23 05:27:54;;;;;;;35.08;29.45;;;10.50;99.90;;;;;;4932084;29;20078;-95
2022/10/23 05:30:22;;;;;;;35.40;29.27;;;10.60;99.90;;;;;;4923467;29;20055;-96
2022/10/23 05:58:25;;;;;;;33.00;28.77;;;10.70;99.90;;;;;;5304118;23;20043;-96
2022/10/23 06:00:51;;;;;;;33.80;28.67;;;10.60;99.90;;;;;;5362145;23;20052;-96
2022/10/23 06:15:01;;;;;;;32.38;26.73;;;10.80;99.90;;;;;;4922335;23;21447;-94
2022/10/23 06:17:28;;;;;;;37.42;28.60;;;10.80;99.90;;;;;;4918181;29;20056;-96
2022/10/23 06:19:59;;;;;;;32.30;26.58;;;10.80;99.90;;;;;;4919721;29;20036;-95
2022/10/23 06:22:26;;;;;;;;;;;10.80;99.90;;;;;;4936052;29;20063;-96
2022/10/23 07:08:56;;;;;;;33.20;24.00;;;11.20;99.90;;;;;;4975036;23;20036;-96
2022/10/23 07:22:17;;;;;;;31.40;22.20;;;11.40;99.90;;;;;;4918822;29;20063;-90
2022/10/23 07:24:43;;;;;;;33.38;23.33;;;11.40;99.90;;;;;;4895520;29;20044;-90
2022/10/23 07:27:09;;;;;;;28.52;22.83;;;11.50;99.90;;;;;;4873679;29;20050;-94
2022/10/23 07:29:34;;;;;;;29.60;21.80;;;11.50;99.90;;;;;;4910881;29;20123;-91
2022/10/23 07:32:00;;;;;;;29.45;22.58;;;11.50;99.90;;;;;;4912832;29;20163;-94
2022/10/23 07:34:26;;;;;;;26.15;20.63;;;11.50;99.90;;;;;;4912717;29;20055;-91
2022/10/23 07:36:53;;;;;;;30.65;21.27;;;11.60;99.90;;;;;;4911708;29;20082;-91
2022/10/23 07:39:21;;;;;;;25.92;20.42;;;11.60;99.90;;;;;;4895051;29;20102;-90
2022/10/23 07:41:47;;;;;;;27.55;19.92;;;11.60;99.90;;;;;;4913575;29;20033;-91
2022/10/23 07:44:12;;;;;;;28.50;21.30;;;11.70;99.90;;;;;;4897852;29;20058;-92
2022/10/23 07:46:38;;;;;;;25.48;20.10;;;11.70;99.90;;;;;;4910507;29;20037;-92
2022/10/23 07:49:04;;;;;;;28.92;19.67;;;11.80;99.90;;;;;;4910468;29;20052;-93
2022/10/23 07:51:29;;;;;;;26.00;19.65;;;11.80;99.90;;;;;;4912860;29;20104;-88
2022/10/23 15:50:12;;;;;;;9.65;5.43;;;15.90;99.90;;;;;;4890481;29;20135;-86
2022/10/23 15:52:38;;;;;;;9.82;5.30;;;15.90;99.90;;;;;;4886966;29;20179;-87
2022/10/23 15:55:04;;;;;;;9.88;4.70;;;15.90;99.90;;;;;;4885049;29;20045;-86
2022/10/23 15:57:30;;;;;;;9.52;5.00;;;15.80;99.90;;;;;;4868178;29;20048;-86
2022/10/23 15:59:55;;;;;;;9.88;4.95;;;15.80;99.90;;;;;;4870991;29;20618;-87
2022/10/23 16:02:21;;;;;;;9.90;4.63;;;15.80;99.90;;;;;;4859457;29;20404;-87
2022/10/23 16:04:48;;;;;;;9.18;4.38;;;15.70;99.90;;;;;;4863354;29;20159;-87
2022/10/23 16:07:13;;;;;;;8.13;4.03;;;15.70;99.90;;;;;;4888693;29;20075;-86
2022/10/23 16:09:39;;;;;;;7.93;3.90;;;15.70;99.90;;;;;;4858397;29;20060;-89
2022/10/23 16:12:05;;;;;;;10.48;3.80;;;15.70;99.90;;;;;;4876294;29;20044;-89
2022/10/23 16:14:30;;;;;;;9.02;4.80;;;15.60;99.90;;;;;;4857797;29;20056;-89
2022/10/23 16:16:56;;;;;;;8.73;4.57;;;15.60;99.90;;;;;;4880146;29;20064;-89
2022/10/23 16:19:23;;;;;;;10.50;4.60;;;15.60;99.90;;;;;;4858573;29;20478;-89
2022/10/23 16:21:48;;;;;;;8.45;4.20;;;15.50;99.90;;;;;;4879017;29;20095;-89
2022/10/23 16:24:14;;;;;;;10.02;4.88;;;15.50;99.90;;;;;;4887259;29;20487;-88
2022/10/23 16:26:39;;;;;;;10.68;4.40;;;15.50;99.90;;;;;;4873015;29;20077;-89
2022/10/23 16:29:07;;;;;;;9.70;4.18;;;15.50;99.90;;;;;;4883203;29;20048;-89
2022/10/23 16:31:34;;;;;;;11.52;4.57;;;15.50;99.90;;;;;;4886458;29;20044;-88
2022/10/23 16:34:01;;;;;;;10.10;3.95;;;15.50;99.90;;;;;;4869349;29;20045;-88
2022/10/23 16:36:28;;;;;;;9.48;4.53;;;15.50;99.90;;;;;;4891743;29;20049;-90
2022/10/23 16:38:53;;;;;;;9.38;4.15;;;15.40;99.90;;;;;;4884981;29;20120;-88
2022/10/23 16:41:19;;;;;;;9.50;4.15;;;15.40;99.90;;;;;;4887724;29;20546;-94
2022/10/23 16:43:44;;;;;;;10.93;4.03;;;15.40;99.90;;;;;;4879449;29;20037;-92
2022/10/23 16:46:18;;;;;;;11.68;4.25;;;15.30;99.90;;;;;;4893384;29;20094;-92
2022/10/23 16:48:44;;;;;;;10.05;4.00;;;15.30;99.90;;;;;;4895555;29;20087;-92
2022/10/23 16:51:13;;;;;;;8.27;4.50;;;15.20;99.90;;;;;;4904783;29;20078;-91
2022/10/23 16:53:39;;;;;;;9.43;4.43;;;15.20;99.90;;;;;;4910923;29;20091;-92
2022/10/23 16:56:07;;;;;;;11.73;4.45;;;15.20;99.90;;;;;;4901068;29;20067;-91
2022/10/23 16:58:35;;;;;;;8.90;4.47;;;15.10;99.90;;;;;;4902499;29;20043;-92
2022/10/23 17:01:11;;;;;;;9.32;4.10;;;15.10;99.90;;;;;;4885220;29;20805;-92
2022/10/23 17:03:39;;;;;;;10.25;4.38;;;15.10;99.90;;;;;;4905186;29;20143;-92
2022/10/23 17:06:08;;;;;;;8.82;4.20;;;15.10;99.90;;;;;;4903290;29;20049;-91
2022/10/23 17:08:33;;;;;;;8.13;4.20;;;15.10;99.90;;;;;;4890507;29;20999;-90
2022/10/23 17:11:06;;;;;;;9.68;4.32;;;15.20;99.90;;;;;;4884157;29;20076;-91
2022/10/23 17:13:32;;;;;;;10.20;4.25;;;15.20;99.90;;;;;;4888259;29;20044;-92
2022/10/23 17:16:04;;;;;;;9.48;4.30;;;15.30;99.90;;;;;;4902887;29;20950;-91
2022/10/23 17:18:30;;;;;;;11.48;4.75;;;15.20;99.90;;;;;;4909270;29;20054;-91
2022/10/23 17:20:56;;;;;;;9.50;4.45;;;15.20;99.90;;;;;;4894868;29;20040;-91
2022/10/23 17:23:22;;;;;;;10.15;4.40;;;15.30;99.90;;;;;;4887432;29;20032;-94
2022/10/23 17:25:48;;;;;;;9.27;4.28;;;15.30;99.90;;;;;;4875592;29;20112;-93
2022/10/23 17:28:14;;;;;;;9.27;4.22;;;15.40;99.90;;;;;;4900720;29;20048;-93
2022/10/23 17:30:39;;;;;;;9.95;4.32;;;15.40;99.90;;;;;;4891478;29;20396;-91
2022/10/23 17:33:05;;;;;;;9.93;4.65;;;15.40;99.90;;;;;;4887360;29;20036;-91
2022/10/23 17:35:30;;;;;;;8.85;4.57;;;15.30;99.90;;;;;;4891262;29;20040;-93
2022/10/23 17:37:56;;;;;;;10.30;4.57;;;15.40;99.90;;;;;;4877130;29;20136;-93
2022/10/23 17:40:22;;;;;;;9.88;4.55;;;15.40;99.90;;;;;;4887272;29;20107;-93
2022/10/23 17:42:47;;;;;;;12.02;5.30;;;15.40;99.90;;;;;;4855814;29;20127;-92
2022/10/23 17:45:13;;;;;;;9.43;4.55;;;15.40;99.90;;;;;;4891244;29;20096;-90
2022/10/23 17:47:41;;;;;;;10.68;5.05;;;15.40;99.90;;;;;;4886388;29;20102;-91
2022/10/23 17:50:08;;;;;;;8.85;4.90;;;15.40;99.90;;;;;;4852189;29;20118;-92
2022/10/23 17:52:34;;;;;;;9.10;4.85;;;15.40;99.90;;;;;;4855686;29;20497;-92
2022/10/23 17:55:00;;;;;;;10.98;5.00;;;15.40;99.90;;;;;;4869588;29;20498;-91
2022/10/23 17:57:26;;;;;;;8.77;4.65;;;15.40;99.90;;;;;;4869730;29;20051;-91
2022/10/23 17:59:51;;;;;;;10.30;4.88;;;15.30;99.90;;;;;;4877319;29;20045;-93
2022/10/23 18:02:17;;;;;;;10.20;5.05;;;15.30;99.90;;;;;;4878902;29;20025;-93
2022/10/23 18:04:42;;;;;;;9.15;4.93;;;15.30;99.90;;;;;;4904566;29;20079;-94
2022/10/23 18:07:08;;;;;;;9.65;4.90;;;15.20;99.90;;;;;;4880958;29;20052;-93
2022/10/23 18:09:34;;;;;;;10.27;5.20;;;15.20;99.90;;;;;;4869202;29;20049;-94
2022/10/23 18:11:59;;;;;;;10.30;5.45;;;15.20;99.90;;;;;;4895710;29;20513;-93
2022/10/23 18:14:25;;;;;;;9.50;4.93;;;15.20;99.90;;;;;;4889943;29;20082;-92
2022/10/23 18:16:52;;;;;;;9.13;4.82;;;15.20;99.90;;;;;;4889089;29;20036;-94
2022/10/23 18:19:18;;;;;;;9.43;5.28;;;15.20;99.90;;;;;;4884281;29;20121;-93
2022/10/23 18:21:44;;;;;;;11.25;5.00;;;15.20;99.90;;;;;;4870143;29;20709;-95
2022/10/23 18:24:09;;;;;;;11.90;4.93;;;15.30;99.90;;;;;;4899041;29;20036;-93
2022/10/23 18:26:38;;;;;;;9.57;4.93;;;15.30;99.90;;;;;;4893217;29;20045;-94
2022/10/23 18:29:06;;;;;;;9.93;5.13;;;15.30;99.90;;;;;;4877020;29;20048;-93
2022/10/23 18:31:33;;;;;;;9.77;4.55;;;15.40;99.90;;;;;;4873512;29;20048;-93
2022/10/23 18:34:08;;;;;;;11.45;5.05;;;15.40;99.90;;;;;;4874738;29;20347;-93
2022/10/23 18:36:36;;;;;;;12.95;5.40;;;15.50;99.90;;;;;;4873972;29;20405;-93
2022/10/23 18:39:03;;;;;;;8.43;4.50;;;15.50;99.90;;;;;;4881174;29;20501;-93
2022/10/23 18:41:34;;;;;;;10.25;4.40;;;15.50;99.90;;;;;;4878127;29;20036;-91
2022/10/23 18:44:00;;;;;;;;;;;15.60;99.90;;;;;;4873298;29;20052;-93
2022/10/23 18:46:26;;;;;;;10.05;4.63;;;15.50;99.90;;;;;;4891003;29;19930;-93
2022/10/23 18:48:52;;;;;;;9.85;4.05;;;15.60;99.90;;;;;;4902936;29;20141;-93
2022/10/23 18:51:26;;;;;;;9.80;4.05;;;15.70;99.90;;;;;;4891290;29;20036;-92
2022/10/23 18:53:52;;;;;;;11.75;4.78;;;15.80;99.90;;;;;;4914991;29;20048;-93
2022/10/23 18:56:23;;;;;;;10.23;4.25;;;16.00;99.90;;;;;;4917789;29;20052;-92
2022/10/23 18:58:50;;;;;;;13.38;4.60;;;16.00;99.90;;;;;;4901601;29;20035;-92
2022/10/23 19:01:16;;;;;;;10.98;4.70;;;16.00;99.90;;;;;;4900751;29;20052;-92
2022/10/23 19:03:41;;;;;;;8.20;4.03;;;16.10;99.90;;;;;;4899205;29;20104;-92
2022/10/23 19:06:07;;;;;;;7.13;4.05;;;16.20;99.90;;;;;;4899628;29;20071;-92
2022/10/23 19:08:38;;;;;;;10.23;4.18;;;16.20;99.90;;;;;;4877978;29;20423;-92
2022/10/23 19:11:06;;;;;;;9.85;4.45;;;16.30;99.90;;;;;;4882902;29;20547;-92
2022/10/23 19:13:35;;;;;;;11.30;4.30;;;16.30;99.90;;;;;;4878765;29;20389;-90
2022/10/23 19:16:07;;;;;;;8.07;4.40;;;16.30;99.90;;;;;;4881480;29;20037;-93
2022/10/23 19:18:35;;;;;;;9.48;4.15;;;16.40;99.90;;;;;;4899363;29;20047;-93
2022/10/23 19:21:04;;;;;;;11.23;4.60;;;16.40;99.90;;;;;;4898300;29;20052;-93
2022/10/23 19:23:30;;;;;;;12.00;4.28;;;16.50;99.90;;;;;;4903774;29;20033;-92
2022/10/23 19:25:56;;;;;;;10.07;4.32;;;16.50;99.90;;;;;;4880028;29;20055;-92
2022/10/23 19:28:23;;;;;;;10.65;4.07;;;16.50;99.90;;;;;;4897098;29;20056;-92
2022/10/23 19:30:48;;;;;;;10.00;4.43;;;16.50;99.90;;;;;;4878479;29;20044;-93
2022/10/23 19:33:14;;;;;;;9.30;4.38;;;16.50;99.90;;;;;;4879743;29;21086;-93
2022/10/23 19:35:40;;;;;;;9.25;4.22;;;16.50;99.90;;;;;;4880277;29;20064;-93
2022/10/23 19:38:05;;;;;;;11.38;4.55;;;16.50;99.90;;;;;;4889777;29;20045;-94
2022/10/23 19:40:39;;;;;;;7.50;4.20;;;16.50;99.90;;;;;;4865989;29;20041;-95
